createdAt,value
2024-04-23T00:00:13.813Z,4.88
2024-04-23T00:01:14.166Z,4.91
2024-04-23T00:02:14.436Z,4.89
2024-04-23T00:03:14.828Z,4.86
2024-04-23T00:04:15.095Z,4.84
2024-04-23T00:05:15.433Z,4.78
2024-04-23T00:06:15.709Z,4.78
2024-04-23T00:07:16.045Z,4.75
2024-04-23T00:08:16.330Z,4.75
2024-04-23T00:09:16.643Z,4.73
2024-04-23T00:10:17.015Z,4.69
2024-04-23T00:11:17.311Z,4.66
2024-04-23T00:12:17.493Z,4.67
2024-04-23T00:13:17.764Z,4.65
2024-04-23T00:14:18.135Z,4.62
2024-04-23T00:15:18.422Z,4.62
2024-04-23T00:16:18.784Z,4.54
2024-04-23T00:17:19.164Z,4.52
2024-04-23T00:18:19.442Z,4.50
2024-04-23T00:19:19.621Z,4.48
2024-04-23T00:20:19.913Z,4.47
2024-04-23T00:21:20.240Z,4.47
2024-04-23T00:22:20.513Z,4.52
2024-04-23T00:23:20.803Z,4.51
2024-04-23T00:24:21.118Z,4.50
2024-04-23T00:25:21.400Z,4.47
2024-04-23T00:26:21.780Z,4.47
2024-04-23T00:27:22.047Z,4.45
2024-04-23T00:28:22.408Z,4.44
2024-04-23T00:29:22.671Z,4.42
2024-04-23T00:30:22.984Z,4.44
2024-04-23T00:31:23.397Z,4.44
2024-04-23T00:32:23.672Z,4.45
2024-04-23T00:33:23.970Z,4.42
2024-04-23T00:34:24.308Z,4.42
2024-04-23T00:35:24.617Z,4.42
2024-04-23T00:36:24.899Z,4.40
2024-04-23T00:37:25.254Z,4.36
2024-04-23T00:38:25.550Z,4.33
2024-04-23T00:39:25.845Z,4.29
2024-04-23T00:40:26.223Z,4.29
2024-04-23T00:41:26.378Z,4.29
2024-04-23T00:42:26.676Z,4.24
2024-04-23T00:43:27.010Z,4.22
2024-04-23T00:44:27.314Z,4.22
2024-04-23T00:45:27.613Z,4.16
2024-04-23T00:46:27.955Z,4.16
2024-04-23T00:47:28.302Z,4.14
2024-04-23T00:48:28.689Z,4.14
2024-04-23T00:49:28.854Z,4.08
2024-04-23T00:50:29.178Z,4.05
2024-04-23T00:51:29.514Z,4.05
2024-04-23T00:52:29.879Z,4.04
2024-04-23T00:53:30.160Z,4.04
2024-04-23T00:54:30.469Z,4.04
2024-04-23T00:55:30.777Z,4.04
2024-04-23T00:56:31.078Z,4.02
2024-04-23T00:57:31.411Z,4.04
2024-04-23T00:58:31.709Z,3.98
2024-04-23T00:59:32.027Z,3.98
2024-04-23T01:00:32.391Z,3.96
2024-04-23T01:01:32.763Z,3.91
2024-04-23T01:02:33.041Z,3.88
2024-04-23T01:03:33.331Z,3.87
2024-04-23T01:04:33.631Z,3.87
2024-04-23T01:05:33.977Z,3.91
2024-04-23T01:06:34.278Z,3.90
2024-04-23T01:07:34.616Z,3.88
2024-04-23T01:08:34.935Z,3.88
2024-04-23T01:09:35.209Z,3.88
2024-04-23T01:10:35.522Z,3.88
2024-04-23T01:11:35.965Z,3.90
2024-04-23T01:12:36.090Z,3.87
2024-04-23T01:13:36.443Z,3.79
2024-04-23T01:14:36.739Z,3.78
2024-04-23T01:15:37.069Z,3.75
2024-04-23T01:16:37.406Z,3.75
2024-04-23T01:17:37.752Z,3.72
2024-04-23T01:18:37.976Z,3.72
2024-04-23T01:19:38.378Z,3.69
2024-04-23T01:20:38.509Z,3.69
2024-04-23T01:21:38.842Z,3.70
2024-04-23T01:22:39.193Z,3.72
2024-04-23T01:23:39.459Z,3.70
2024-04-23T01:24:39.757Z,3.70
2024-04-23T01:25:40.101Z,3.70
2024-04-23T01:26:40.494Z,3.75
2024-04-23T01:27:40.732Z,3.75
2024-04-23T01:28:40.978Z,3.79
2024-04-23T01:29:41.275Z,3.84
2024-04-23T01:30:41.555Z,3.87
2024-04-23T01:31:41.865Z,3.87
2024-04-23T01:32:42.282Z,3.90
2024-04-23T01:33:42.640Z,3.90
2024-04-23T01:34:42.809Z,3.91
2024-04-23T01:35:43.084Z,3.91
2024-04-23T01:36:43.389Z,3.91
2024-04-23T01:37:43.750Z,3.91
2024-04-23T01:38:44.064Z,3.91
2024-04-23T01:39:44.352Z,3.93
2024-04-23T01:40:44.673Z,3.93
2024-04-23T01:41:44.972Z,3.94
2024-04-23T01:42:45.273Z,3.94
2024-04-23T01:43:45.602Z,3.97
2024-04-23T01:44:45.925Z,3.97
2024-04-23T01:45:46.216Z,3.97
2024-04-23T01:46:46.572Z,3.97
2024-04-23T01:47:46.958Z,3.97
2024-04-23T01:48:46.984Z,3.94
2024-04-23T01:49:47.333Z,3.94
2024-04-23T01:50:47.632Z,3.94
2024-04-23T01:51:47.941Z,3.91
2024-04-23T01:52:48.232Z,3.91
2024-04-23T01:53:48.553Z,3.90
2024-04-23T01:54:48.913Z,3.87
2024-04-23T01:55:49.241Z,3.86
2024-04-23T01:56:49.537Z,3.84
2024-04-23T01:57:49.821Z,3.83
2024-04-23T01:58:50.145Z,3.79
2024-04-23T01:59:50.421Z,3.78
2024-04-23T02:00:50.778Z,3.76
2024-04-23T02:01:51.071Z,3.76
2024-04-23T02:02:51.414Z,3.75
2024-04-23T02:03:51.594Z,3.73
2024-04-23T02:04:51.874Z,3.72
2024-04-23T02:05:52.223Z,3.70
2024-04-23T02:06:52.516Z,3.70
2024-04-23T02:07:52.869Z,3.68
2024-04-23T02:08:53.136Z,3.68
2024-04-23T02:09:53.473Z,3.66
2024-04-23T02:10:53.927Z,3.68
2024-04-23T02:11:54.081Z,3.68
2024-04-23T02:12:54.353Z,3.68
2024-04-23T02:13:54.699Z,3.66
2024-04-23T02:14:54.887Z,3.66
2024-04-23T02:15:55.201Z,3.62
2024-04-23T02:16:58.382Z,3.57
2024-04-23T02:17:55.819Z,3.60
2024-04-23T02:18:56.110Z,3.55
2024-04-23T02:19:56.553Z,3.54
2024-04-23T02:20:56.743Z,3.55
2024-04-23T02:21:57.039Z,3.55
2024-04-23T02:22:57.461Z,3.57
2024-04-23T02:23:57.699Z,3.57
2024-04-23T02:24:58.020Z,3.57
2024-04-23T02:25:58.400Z,3.58
2024-04-23T02:26:58.583Z,3.58
2024-04-23T02:27:58.903Z,3.57
2024-04-23T02:28:59.276Z,3.58
2024-04-23T02:29:59.553Z,3.55
2024-04-23T02:30:59.862Z,3.57
2024-04-23T02:32:00.319Z,3.55
2024-04-23T02:33:00.718Z,3.52
2024-04-23T02:34:00.769Z,3.48
2024-04-23T02:35:01.123Z,3.43
2024-04-23T02:36:01.294Z,3.45
2024-04-23T02:37:01.642Z,3.45
2024-04-23T02:38:02.052Z,3.43
2024-04-23T02:39:02.261Z,3.42
2024-04-23T02:40:04.660Z,3.35
2024-04-23T02:41:02.839Z,3.36
2024-04-23T02:42:03.149Z,3.35
2024-04-23T02:43:03.455Z,3.33
2024-04-23T02:44:03.818Z,3.32
2024-04-23T02:45:04.004Z,3.31
2024-04-23T02:46:04.265Z,3.32
2024-04-23T02:47:04.605Z,3.31
2024-04-23T02:48:05.114Z,3.31
2024-04-23T02:49:05.198Z,3.32
2024-04-23T02:50:05.479Z,3.32
2024-04-23T02:51:05.816Z,3.33
2024-04-23T02:52:06.118Z,3.31
2024-04-23T02:53:06.457Z,3.32
2024-04-23T02:54:06.725Z,3.33
2024-04-23T02:55:07.072Z,3.35
2024-04-23T02:56:07.386Z,3.36
2024-04-23T02:57:07.669Z,3.36
2024-04-23T02:58:07.986Z,3.36
2024-04-23T02:59:08.274Z,3.35
2024-04-23T03:00:08.596Z,3.35
2024-04-23T03:01:08.908Z,3.36
2024-04-23T03:02:09.256Z,3.40
2024-04-23T03:03:09.474Z,3.40
2024-04-23T03:04:09.734Z,3.40
2024-04-23T03:05:10.139Z,3.40
2024-04-23T03:06:10.433Z,3.42
2024-04-23T03:07:10.706Z,3.42
2024-04-23T03:08:11.111Z,3.40
2024-04-23T03:09:11.256Z,3.39
2024-04-23T03:10:11.631Z,3.39
2024-04-23T03:11:11.970Z,3.33
2024-04-23T03:12:12.139Z,3.31
2024-04-23T03:13:12.446Z,3.29
2024-04-23T03:14:12.778Z,3.28
2024-04-23T03:15:13.103Z,3.24
2024-04-23T03:16:13.411Z,3.23
2024-04-23T03:17:13.692Z,3.21
2024-04-23T03:18:14.101Z,3.20
2024-04-23T03:19:14.258Z,3.21
2024-04-23T03:20:14.576Z,3.21
2024-04-23T03:21:14.868Z,3.23
2024-04-23T03:22:15.154Z,3.21
2024-04-23T03:23:15.442Z,3.21
2024-04-23T03:24:15.762Z,3.20
2024-04-23T03:25:16.077Z,3.18
2024-04-23T03:26:16.395Z,3.18
2024-04-23T03:27:16.705Z,3.17
2024-04-23T03:28:17.040Z,3.15
2024-04-23T03:29:17.433Z,3.14
2024-04-23T03:30:17.707Z,3.13
2024-04-23T03:31:18.054Z,3.13
2024-04-23T03:32:18.569Z,3.14
2024-04-23T03:33:18.708Z,3.14
2024-04-23T03:34:19.021Z,3.14
2024-04-23T03:35:19.304Z,3.13
2024-04-23T03:36:19.662Z,3.11
2024-04-23T03:37:19.999Z,3.10
2024-04-23T03:38:20.322Z,3.10
2024-04-23T03:39:20.632Z,3.08
2024-04-23T03:40:20.961Z,3.08
2024-04-23T03:41:21.259Z,3.10
2024-04-23T03:42:21.508Z,3.10
2024-04-23T03:43:21.837Z,3.08
2024-04-23T03:44:22.050Z,3.08
2024-04-23T03:45:22.277Z,3.06
2024-04-23T03:46:22.513Z,3.05
2024-04-23T03:47:22.800Z,3.03
2024-04-23T03:48:23.114Z,3.02
2024-04-23T03:49:23.422Z,3.00
2024-04-23T03:50:27.372Z,2.99
2024-04-23T03:51:24.056Z,2.99
2024-04-23T03:52:24.410Z,2.97
2024-04-23T03:53:24.740Z,2.99
2024-04-23T03:54:24.939Z,2.97
2024-04-23T03:55:25.293Z,2.95
2024-04-23T03:56:25.578Z,2.99
2024-04-23T03:57:25.830Z,3.00
2024-04-23T03:58:26.025Z,3.03
2024-04-23T03:59:26.245Z,3.00
2024-04-23T04:00:26.466Z,2.99
2024-04-23T04:01:26.922Z,3.00
2024-04-23T04:02:27.175Z,3.02
2024-04-23T04:03:27.389Z,3.02
2024-04-23T04:04:27.752Z,3.03
2024-04-23T04:05:27.974Z,3.03
2024-04-23T04:06:28.293Z,3.03
2024-04-23T04:07:28.642Z,3.05
2024-04-23T04:08:28.910Z,3.05
2024-04-23T04:09:29.275Z,3.06
2024-04-23T04:10:29.630Z,3.06
2024-04-23T04:11:29.979Z,3.08
2024-04-23T04:12:30.153Z,3.02
2024-04-23T04:13:30.452Z,3.02
2024-04-23T04:14:30.617Z,3.00
2024-04-23T04:15:30.848Z,3.00
2024-04-23T04:16:35.199Z,3.02
2024-04-23T04:17:31.537Z,3.06
2024-04-23T04:18:31.766Z,3.11
2024-04-23T04:19:32.012Z,3.14
2024-04-23T04:20:32.310Z,3.14
2024-04-23T04:21:32.642Z,3.17
2024-04-23T04:22:33.052Z,3.23
2024-04-23T04:23:33.261Z,3.29
2024-04-23T04:24:33.610Z,3.32
2024-04-23T04:25:33.856Z,3.35
2024-04-23T04:26:34.075Z,3.39
2024-04-23T04:27:34.257Z,3.42
2024-04-23T04:28:34.518Z,3.47
2024-04-23T04:29:34.765Z,3.51
2024-04-23T04:30:34.996Z,3.55
2024-04-23T04:31:35.366Z,3.58
2024-04-23T04:32:35.624Z,3.61
2024-04-23T04:33:35.851Z,3.65
2024-04-23T04:34:36.071Z,3.65
2024-04-23T04:35:36.398Z,3.65
2024-04-23T04:36:36.635Z,3.66
2024-04-23T04:37:37.005Z,3.72
2024-04-23T04:38:37.151Z,3.73
2024-04-23T04:39:37.359Z,3.78
2024-04-23T04:40:37.640Z,3.78
2024-04-23T04:41:37.839Z,3.79
2024-04-23T04:42:38.168Z,3.80
2024-04-23T04:43:38.534Z,3.84
2024-04-23T04:44:38.681Z,3.83
2024-04-23T04:45:38.922Z,3.83
2024-04-23T04:46:39.337Z,3.83
2024-04-23T04:47:39.692Z,3.87
2024-04-23T04:48:39.890Z,3.88
2024-04-23T04:49:40.145Z,3.90
2024-04-23T04:50:40.500Z,3.96
2024-04-23T04:51:40.795Z,3.97
2024-04-23T04:52:41.093Z,4.04
2024-04-23T04:53:41.263Z,4.05
2024-04-23T04:54:41.507Z,4.06
2024-04-23T04:55:41.812Z,4.12
2024-04-23T04:56:41.995Z,4.22
2024-04-23T04:57:42.267Z,4.27
2024-04-23T04:58:42.502Z,4.44
2024-04-23T04:59:42.738Z,4.60
2024-04-23T05:00:44.629Z,4.65
2024-04-23T05:01:43.290Z,4.65
2024-04-23T05:02:43.594Z,4.62
2024-04-23T05:03:43.813Z,4.60
2024-04-23T05:04:44.167Z,4.59
2024-04-23T05:05:44.395Z,4.58
2024-04-23T05:06:44.640Z,4.55
2024-04-23T05:07:44.994Z,4.60
2024-04-23T05:08:45.203Z,4.63
2024-04-23T05:09:45.441Z,4.69
2024-04-23T05:10:45.726Z,4.75
2024-04-23T05:11:46.002Z,4.86
2024-04-23T05:12:46.211Z,5.00
2024-04-23T05:13:46.451Z,5.17
2024-04-23T05:14:46.672Z,5.25
2024-04-23T05:15:46.938Z,5.24
2024-04-23T05:16:47.183Z,5.18
2024-04-23T05:17:47.478Z,5.13
2024-04-23T05:18:47.656Z,5.09
2024-04-23T05:19:47.966Z,5.04
2024-04-23T05:20:48.162Z,5.02
2024-04-23T05:21:48.393Z,4.99
2024-04-23T05:22:48.736Z,4.96
2024-04-23T05:23:49.043Z,4.91
2024-04-23T05:24:49.302Z,4.88
2024-04-23T05:25:49.695Z,4.85
2024-04-23T05:26:49.872Z,4.82
2024-04-23T05:27:50.113Z,4.78
2024-04-23T05:28:50.384Z,4.75
2024-04-23T05:29:50.632Z,4.67
2024-04-23T05:30:50.907Z,4.59
2024-04-23T05:31:51.169Z,4.51
2024-04-23T05:32:51.386Z,4.47
2024-04-23T05:33:51.728Z,4.40
2024-04-23T05:34:51.958Z,4.32
2024-04-23T05:35:52.187Z,4.29
2024-04-23T05:36:52.394Z,4.27
2024-04-23T05:37:52.639Z,4.26
2024-04-23T05:38:52.871Z,4.27
2024-04-23T05:39:53.133Z,4.24
2024-04-23T05:40:53.373Z,4.24
2024-04-23T05:41:53.593Z,4.24
2024-04-23T05:42:53.827Z,4.29
2024-04-23T05:43:54.139Z,4.32
2024-04-23T05:44:54.326Z,4.32
2024-04-23T05:45:54.581Z,4.36
2024-04-23T05:46:54.898Z,4.40
2024-04-23T05:47:55.168Z,4.40
2024-04-23T05:48:55.379Z,4.40
2024-04-23T05:49:55.741Z,4.40
2024-04-23T05:50:56.043Z,4.37
2024-04-23T05:51:56.274Z,4.42
2024-04-23T05:52:56.603Z,4.50
2024-04-23T05:53:56.829Z,4.52
2024-04-23T05:54:57.039Z,4.52
2024-04-23T05:55:57.507Z,4.58
2024-04-23T05:56:57.619Z,4.75
2024-04-23T05:57:57.877Z,4.85
2024-04-23T05:58:58.235Z,5.00
2024-04-23T05:59:58.466Z,5.12
2024-04-23T06:00:58.730Z,5.15
2024-04-23T06:01:59.061Z,5.28
2024-04-23T06:02:59.338Z,5.38
2024-04-23T06:03:59.419Z,5.79
2024-04-23T06:04:59.758Z,6.08
2024-04-23T06:05:59.970Z,6.28
2024-04-23T06:07:00.243Z,6.73
2024-04-23T06:08:00.660Z,6.98
2024-04-23T06:09:00.920Z,6.99
2024-04-23T06:10:01.143Z,6.89
2024-04-23T06:11:01.658Z,6.71
2024-04-23T06:12:01.774Z,6.88
2024-04-23T06:13:01.995Z,7.31
2024-04-23T06:14:02.289Z,7.74
2024-04-23T06:15:02.503Z,8.10
2024-04-23T06:16:02.754Z,8.41
2024-04-23T06:17:03.151Z,8.71
2024-04-23T06:18:03.385Z,9.02
2024-04-23T06:19:03.528Z,9.13
2024-04-23T06:20:03.802Z,9.18
2024-04-23T06:21:04.059Z,8.95
2024-04-23T06:22:04.410Z,8.71
2024-04-23T06:23:04.855Z,8.61
2024-04-23T06:24:05.081Z,8.37
2024-04-23T06:25:05.288Z,8.56
2024-04-23T06:26:05.620Z,8.19
2024-04-23T06:27:05.817Z,7.92
2024-04-23T06:28:06.145Z,7.61
2024-04-23T06:29:06.393Z,7.75
2024-04-23T06:30:06.627Z,7.80
2024-04-23T06:31:06.883Z,7.87
2024-04-23T06:32:07.130Z,7.80
2024-04-23T06:33:07.540Z,7.58
2024-04-23T06:34:07.567Z,7.43
2024-04-23T06:35:07.872Z,7.24
2024-04-23T06:36:08.138Z,7.05
2024-04-23T06:37:08.525Z,6.92
2024-04-23T06:38:08.757Z,6.92
2024-04-23T06:39:09.079Z,6.84
2024-04-23T06:40:09.413Z,6.73
2024-04-23T06:41:09.684Z,6.64
2024-04-23T06:42:09.981Z,6.54
2024-04-23T06:43:12.322Z,6.43
2024-04-23T06:44:10.574Z,6.33
2024-04-23T06:45:10.812Z,6.25
2024-04-23T06:46:11.051Z,6.28
2024-04-23T06:47:11.392Z,6.31
2024-04-23T06:48:11.670Z,6.33
2024-04-23T06:49:12.006Z,6.37
2024-04-23T06:50:12.275Z,6.37
2024-04-23T06:51:12.474Z,6.34
2024-04-23T06:52:12.715Z,6.22
2024-04-23T06:53:13.015Z,6.12
2024-04-23T06:54:13.253Z,6.03
2024-04-23T06:55:13.476Z,5.93
2024-04-23T06:56:13.703Z,5.82
2024-04-23T06:57:13.997Z,5.74
2024-04-23T06:58:14.296Z,5.72
2024-04-23T06:59:14.579Z,5.71
2024-04-23T07:00:14.795Z,5.67
2024-04-23T07:01:15.059Z,5.64
2024-04-23T07:02:15.348Z,5.61
2024-04-23T07:03:15.517Z,5.60
2024-04-23T07:04:15.708Z,5.61
2024-04-23T07:05:16.089Z,5.61
2024-04-23T07:06:16.391Z,5.61
2024-04-23T07:07:16.624Z,5.61
2024-04-23T07:08:16.903Z,5.64
2024-04-23T07:09:17.125Z,5.64
2024-04-23T07:10:17.477Z,5.63
2024-04-23T07:11:17.758Z,5.64
2024-04-23T07:12:19.086Z,5.68
2024-04-23T07:13:18.373Z,5.68
2024-04-23T07:14:18.593Z,5.71
2024-04-23T07:15:20.290Z,5.75
2024-04-23T07:16:19.267Z,5.81
2024-04-23T07:17:19.674Z,5.82
2024-04-23T07:18:19.964Z,5.86
2024-04-23T07:19:20.255Z,5.86
2024-04-23T07:20:20.510Z,5.85
2024-04-23T07:21:20.707Z,5.83
2024-04-23T07:22:21.080Z,5.85
2024-04-23T07:23:21.320Z,5.90
2024-04-23T07:24:21.629Z,5.96
2024-04-23T07:25:24.637Z,6.00
2024-04-23T07:26:22.436Z,6.03
2024-04-23T07:32:43.518Z,6.38
2024-04-23T07:33:43.794Z,6.37
2024-04-23T07:34:44.020Z,6.36
2024-04-23T07:35:44.221Z,6.34
2024-04-23T07:36:46.474Z,6.37
2024-04-23T07:37:44.628Z,6.44
2024-04-23T07:38:44.844Z,6.52
2024-04-23T07:39:45.088Z,6.58
2024-04-23T07:40:45.385Z,6.66
2024-04-23T07:41:45.613Z,6.69
2024-04-23T07:42:45.965Z,6.70
2024-04-23T07:43:46.332Z,6.76
2024-04-23T07:44:46.526Z,6.77
2024-04-23T07:45:46.763Z,6.84
2024-04-23T07:46:47.254Z,6.85
2024-04-23T07:47:56.797Z,6.88
2024-04-23T07:48:47.888Z,6.89
2024-04-23T07:49:50.365Z,6.98
2024-04-23T07:50:48.115Z,7.03
2024-04-23T07:51:58.214Z,7.12
2024-04-23T07:52:48.875Z,7.17
2024-04-23T07:53:49.682Z,7.27
2024-04-23T07:54:49.372Z,7.32
2024-04-23T07:55:49.892Z,7.37
2024-04-23T07:56:50.210Z,7.34
2024-04-23T07:57:50.212Z,7.27
2024-04-23T07:58:51.798Z,7.15
2024-04-23T07:59:55.724Z,7.06
2024-04-23T08:00:52.566Z,6.98
2024-04-23T08:01:53.234Z,6.94
2024-04-23T08:02:52.391Z,6.89
2024-04-23T08:04:01.512Z,6.88
2024-04-23T08:04:53.378Z,6.88
2024-04-23T08:05:52.751Z,6.88
2024-04-23T08:06:54.225Z,6.89
2024-04-23T08:07:53.301Z,6.94
2024-04-23T08:08:53.937Z,6.91
2024-04-23T08:09:55.168Z,6.89
2024-04-23T08:10:54.155Z,6.92
2024-04-23T08:11:54.274Z,6.94
2024-04-23T08:12:54.664Z,6.95
2024-04-23T08:13:54.849Z,6.97
2024-04-23T08:14:55.266Z,6.98
2024-04-23T08:15:55.389Z,6.97
2024-04-23T08:16:56.187Z,6.92
2024-04-23T08:17:56.181Z,6.81
2024-04-23T08:18:56.189Z,6.77
2024-04-23T08:19:56.436Z,6.74
2024-04-23T08:20:56.819Z,6.73
2024-04-23T08:21:57.051Z,6.73
2024-04-23T08:22:57.283Z,6.73
2024-04-23T08:23:57.595Z,6.69
2024-04-23T08:26:14.581Z,-39.95
2024-04-23T08:27:13.887Z,-39.95
2024-04-23T08:28:13.832Z,-39.95
2024-04-23T08:29:13.691Z,-39.95
2024-04-23T08:30:13.719Z,-39.95
2024-04-23T08:31:13.787Z,-39.95
2024-04-23T08:32:13.754Z,-39.95
2024-04-23T08:33:14.642Z,-39.95
2024-04-23T08:34:14.110Z,-39.95
2024-04-23T08:35:34.891Z,-39.95
2024-04-23T08:36:13.847Z,-39.95
2024-04-23T08:37:13.927Z,-39.95
2024-04-23T08:38:13.818Z,-39.95
2024-04-23T08:39:13.876Z,-39.95
2024-04-23T08:40:13.947Z,-39.95
2024-04-23T08:41:14.099Z,-39.95
2024-04-23T08:42:13.983Z,-39.95
2024-04-23T08:43:14.040Z,-39.95
2024-04-23T08:44:17.703Z,-39.95
2024-04-23T08:45:14.254Z,-39.95
2024-04-23T08:46:13.893Z,-39.95
2024-04-23T08:47:14.354Z,-39.95
2024-04-23T08:48:14.265Z,-39.95
2024-04-23T08:49:14.248Z,-39.95
2024-04-23T08:50:14.071Z,-39.95
2024-04-23T08:51:13.961Z,-39.95
2024-04-23T08:52:13.991Z,-39.95
2024-04-23T08:53:14.057Z,-39.95
2024-04-23T08:54:14.256Z,-39.95
2024-04-23T08:55:14.227Z,-39.95
2024-04-23T08:56:14.474Z,-39.95
2024-04-23T08:57:14.068Z,-39.95
2024-04-23T08:58:14.102Z,-39.95
2024-04-23T08:59:14.106Z,-39.95
2024-04-23T09:00:14.814Z,-39.95
2024-04-23T09:01:18.399Z,-39.95
2024-04-23T09:02:14.809Z,-39.95
2024-04-23T09:03:39.476Z,-39.95
2024-04-23T09:04:19.192Z,-39.95
2024-04-23T09:05:14.547Z,-39.95
2024-04-23T09:06:14.283Z,-39.95
2024-04-23T09:07:24.913Z,-39.95
2024-04-23T09:08:15.450Z,-39.95
2024-04-23T09:09:14.424Z,-39.95
2024-04-23T09:10:14.731Z,-39.95
2024-04-23T09:11:14.511Z,-39.95
2024-04-23T09:12:14.485Z,-39.95
2024-04-23T09:13:14.470Z,-39.95
2024-04-23T09:14:14.679Z,-39.95
2024-04-23T09:15:14.590Z,-39.95
2024-04-23T09:16:15.055Z,-39.95
2024-04-23T09:17:14.634Z,-39.95
2024-04-23T09:18:14.735Z,-39.95
2024-04-23T09:19:14.607Z,-39.95
2024-04-23T09:20:14.629Z,-39.95
2024-04-23T09:21:14.917Z,-39.95
2024-04-23T09:22:14.940Z,-39.95
2024-04-23T09:23:14.732Z,-39.95
2024-04-23T09:24:14.923Z,-39.95
2024-04-23T09:25:14.779Z,-39.95
2024-04-23T09:26:14.693Z,-39.95
2024-04-23T09:27:15.048Z,-39.95
2024-04-23T09:28:14.631Z,-39.95
2024-04-23T09:29:15.063Z,-39.95
2024-04-23T09:30:14.874Z,-39.95
2024-04-23T09:31:14.852Z,-39.95
2024-04-23T09:32:14.892Z,-39.95
2024-04-23T09:33:15.126Z,-39.95
2024-04-23T09:34:14.983Z,-39.95
2024-04-23T09:35:14.994Z,-39.95
2024-04-23T09:36:14.832Z,-39.95
2024-04-23T09:37:14.813Z,-39.95
2024-04-23T09:38:14.809Z,-39.95
2024-04-23T09:39:14.832Z,-39.95
2024-04-23T09:40:15.062Z,-39.95
2024-04-23T09:41:14.980Z,-39.95
2024-04-23T09:42:15.381Z,-39.95
2024-04-23T09:43:15.134Z,-39.95
2024-04-23T09:44:14.823Z,-39.95
2024-04-23T09:45:15.277Z,-39.95
2024-04-23T09:46:14.858Z,-39.95
2024-04-23T09:47:15.754Z,-39.95
2024-04-23T09:48:15.506Z,-39.95
2024-04-23T09:49:15.038Z,-39.95
2024-04-23T09:50:15.081Z,-39.95
2024-04-23T09:51:15.058Z,-39.95
2024-04-23T09:52:15.460Z,-39.95
2024-04-23T09:53:15.020Z,-39.95
2024-04-23T09:54:15.127Z,-39.95
2024-04-23T09:55:15.395Z,-39.95
2024-04-23T09:56:14.933Z,-39.95
2024-04-23T09:57:14.982Z,-39.95
2024-04-23T09:58:15.277Z,-39.95
2024-04-23T09:59:15.353Z,-39.95
2024-04-23T10:01:30.672Z,8.91
2024-04-23T10:02:30.974Z,8.89
2024-04-23T10:03:31.067Z,8.96
2024-04-23T10:04:31.386Z,9.02
2024-04-23T10:05:31.645Z,9.04
2024-04-23T10:06:31.796Z,9.08
2024-04-23T10:07:32.059Z,9.13
2024-04-23T10:08:32.324Z,9.13
2024-04-23T10:09:32.575Z,9.11
2024-04-23T10:10:32.908Z,8.99
2024-04-23T10:11:33.297Z,8.98
2024-04-23T10:12:33.338Z,8.91
2024-04-23T10:13:36.162Z,8.80
2024-04-23T10:14:34.015Z,8.80
2024-04-23T10:15:34.267Z,8.81
2024-04-23T10:16:34.521Z,8.84
2024-04-23T10:17:34.732Z,8.87
2024-04-23T10:18:34.985Z,8.98
2024-04-23T10:19:36.879Z,9.02
2024-04-23T10:20:35.504Z,9.11
2024-04-23T10:21:35.847Z,9.10
2024-04-23T10:22:36.248Z,9.10
2024-04-23T10:23:36.476Z,9.13
2024-04-23T10:24:36.700Z,9.17
2024-04-23T10:25:38.187Z,9.24
2024-04-23T10:26:37.352Z,9.31
2024-04-23T10:27:37.675Z,9.40
2024-04-23T10:28:37.935Z,9.53
2024-04-23T10:29:38.154Z,9.61
2024-04-23T10:30:38.402Z,9.71
2024-04-23T10:31:38.710Z,9.76
2024-04-23T10:32:39.064Z,9.79
2024-04-23T10:33:39.339Z,9.86
2024-04-23T10:34:39.618Z,9.99
2024-04-23T10:35:39.815Z,10.07
2024-04-23T10:36:40.186Z,10.05
2024-04-23T10:37:40.427Z,10.05
2024-04-23T10:38:40.632Z,10.09
2024-04-23T10:39:40.867Z,10.08
2024-04-23T10:40:46.836Z,10.01
2024-04-23T10:41:42.479Z,9.97
2024-04-23T10:42:41.693Z,9.96
2024-04-23T10:43:41.982Z,10.02
2024-04-23T10:44:42.173Z,10.04
2024-04-23T10:45:42.555Z,10.07
2024-04-23T10:46:42.808Z,10.08
2024-04-23T10:47:43.072Z,10.08
2024-04-23T10:48:43.388Z,10.11
2024-04-23T10:49:43.659Z,10.09
2024-04-23T10:50:43.864Z,10.05
2024-04-23T10:51:44.108Z,10.01
2024-04-23T10:52:44.494Z,9.96
2024-04-23T10:53:44.794Z,9.93
2024-04-23T10:54:45.131Z,9.90
2024-04-23T10:55:45.469Z,9.89
2024-04-23T10:56:45.690Z,9.89
2024-04-23T10:57:45.967Z,9.89
2024-04-23T10:58:46.181Z,9.89
2024-04-23T10:59:46.671Z,9.87
2024-04-23T11:00:46.792Z,9.89
2024-04-23T11:01:47.070Z,9.90
2024-04-23T11:02:47.311Z,9.93
2024-04-23T11:03:47.639Z,10.01
2024-04-23T11:04:48.084Z,10.05
2024-04-23T11:05:48.450Z,10.09
2024-04-23T11:06:48.351Z,10.12
2024-04-23T11:07:48.672Z,10.15
2024-04-23T11:08:48.871Z,10.18
2024-04-23T11:09:49.138Z,10.23
2024-04-23T11:10:49.472Z,10.26
2024-04-23T11:11:49.752Z,10.32
2024-04-23T11:12:49.962Z,10.36
2024-04-23T11:13:50.248Z,10.32
2024-04-23T11:14:50.464Z,10.26
2024-04-23T11:15:50.690Z,10.26
2024-04-23T11:16:50.955Z,10.26
2024-04-23T11:17:51.446Z,10.26
2024-04-23T11:18:51.770Z,10.26
2024-04-23T11:19:51.930Z,10.23
2024-04-23T11:20:52.124Z,10.23
2024-04-23T11:21:52.393Z,10.23
2024-04-23T11:22:52.622Z,10.20
2024-04-23T11:23:52.909Z,10.17
2024-04-23T11:24:53.113Z,10.12
2024-04-23T11:25:53.571Z,10.08
2024-04-23T11:26:53.783Z,10.08
2024-04-23T11:27:54.072Z,10.05
2024-04-23T11:28:54.275Z,9.99
2024-04-23T11:29:54.502Z,9.99
2024-04-23T11:30:54.747Z,9.96
2024-04-23T11:31:54.981Z,9.97
2024-04-23T11:32:55.432Z,10.02
2024-04-23T11:33:55.610Z,10.01
2024-04-23T11:34:55.864Z,9.97
2024-04-23T11:35:56.048Z,9.94
2024-04-23T11:36:56.295Z,9.97
2024-04-23T11:37:56.694Z,9.97
2024-04-23T11:38:56.867Z,9.97
2024-04-23T11:39:57.197Z,9.93
2024-04-23T11:40:57.504Z,9.91
2024-04-23T11:41:57.785Z,9.91
2024-04-23T11:42:58.017Z,9.96
2024-04-23T11:43:58.350Z,9.99
2024-04-23T11:44:58.543Z,10.02
2024-04-23T11:45:58.800Z,10.04
2024-04-23T11:46:59.088Z,10.07
2024-04-23T11:47:59.408Z,10.07
2024-04-23T11:49:59.931Z,10.15
2024-04-23T11:51:00.117Z,10.23
2024-04-23T11:52:00.455Z,10.29
2024-04-23T11:53:00.647Z,10.34
2024-04-23T11:54:00.917Z,10.34
2024-04-23T11:55:01.177Z,10.33
2024-04-23T11:56:01.558Z,10.33
2024-04-23T11:57:01.773Z,10.33
2024-04-23T11:58:02.262Z,10.30
2024-04-23T11:59:02.249Z,10.27
2024-04-23T12:00:02.662Z,10.29
2024-04-23T12:01:02.799Z,10.30
2024-04-23T12:02:03.110Z,10.30
2024-04-23T12:03:03.295Z,10.29
2024-04-23T12:04:03.588Z,10.26
2024-04-23T12:05:04.049Z,10.25
2024-04-23T12:06:04.271Z,10.22
2024-04-23T12:07:04.363Z,10.23
2024-04-23T12:08:04.628Z,10.23
2024-04-23T12:09:04.925Z,10.25
2024-04-23T12:10:05.981Z,10.29
2024-04-23T12:11:05.506Z,10.33
2024-04-23T12:12:05.656Z,10.38
2024-04-23T12:13:06.005Z,10.45
2024-04-23T12:14:06.411Z,10.52
2024-04-23T12:15:06.642Z,10.59
2024-04-23T12:16:06.861Z,10.67
2024-04-23T12:17:07.163Z,10.73
2024-04-23T12:18:07.512Z,10.78
2024-04-23T12:19:07.630Z,10.84
2024-04-23T12:20:08.024Z,10.84
2024-04-23T12:21:08.106Z,10.86
2024-04-23T12:22:08.378Z,10.86
2024-04-23T12:23:08.778Z,10.84
2024-04-23T12:24:09.019Z,10.84
2024-04-23T12:25:09.227Z,10.84
2024-04-23T12:26:09.546Z,10.85
2024-04-23T12:27:09.759Z,10.81
2024-04-23T12:28:10.040Z,10.81
2024-04-23T12:29:10.467Z,10.81
2024-04-23T12:30:10.719Z,10.81
2024-04-23T12:31:10.894Z,10.78
2024-04-23T12:32:11.265Z,10.79
2024-04-23T12:33:11.676Z,10.82
2024-04-23T12:34:11.671Z,10.85
2024-04-23T12:35:11.921Z,10.85
2024-04-23T12:36:12.147Z,10.88
2024-04-23T12:37:12.399Z,10.91
2024-04-23T12:38:12.725Z,10.96
2024-04-23T12:39:12.956Z,10.94
2024-04-23T12:40:13.337Z,10.96
2024-04-23T12:41:13.616Z,10.97
2024-04-23T12:42:13.827Z,10.96
2024-04-23T12:43:14.296Z,10.94
2024-04-23T12:44:14.553Z,10.92
2024-04-23T12:45:14.763Z,10.91
2024-04-23T12:46:15.090Z,10.91
2024-04-23T12:47:15.523Z,10.94
2024-04-23T12:48:15.715Z,10.97
2024-04-23T12:49:16.003Z,10.99
2024-04-23T12:50:16.170Z,11.03
2024-04-23T12:51:16.420Z,11.09
2024-04-23T12:52:16.789Z,11.14
2024-04-23T12:53:17.110Z,11.17
2024-04-23T12:54:17.436Z,11.17
2024-04-23T12:55:17.773Z,11.15
2024-04-23T12:56:18.194Z,11.11
2024-04-23T12:57:18.414Z,11.10
2024-04-23T12:58:18.616Z,11.07
2024-04-23T12:59:19.005Z,11.06
2024-04-23T13:00:19.224Z,11.02
2024-04-23T13:01:20.501Z,10.92
2024-04-23T13:02:19.921Z,10.86
2024-04-23T13:03:20.240Z,10.82
2024-04-23T13:04:20.530Z,10.74
2024-04-23T13:05:20.830Z,10.68
2024-04-23T13:06:21.012Z,10.66
2024-04-23T13:07:21.190Z,10.61
2024-04-23T13:08:21.439Z,10.59
2024-04-23T13:09:21.756Z,10.53
2024-04-23T13:10:22.034Z,10.48
2024-04-23T13:11:22.301Z,10.44
2024-04-23T13:12:22.496Z,10.42
2024-04-23T13:13:22.713Z,10.44
2024-04-23T13:14:22.976Z,10.41
2024-04-23T13:15:23.334Z,10.40
2024-04-23T13:16:30.449Z,10.34
2024-04-23T13:17:24.864Z,10.29
2024-04-23T13:18:24.138Z,10.18
2024-04-23T13:19:24.855Z,10.12